LIME/BGY METAR and TAF weather

Enter ICAO airport designator
Station Type Date Time Source
LIME METAR 2021/02/25 02:20 UTC NOAA

LIME 250220Z 35004KT CAVOK 09/01 Q1032 NOSIG


Station Type Date Time Source
LIME Decoded METAR 2021/02/25 02:20 UTC NOAA

Bergamo / Orio Al Serio, Italy (LIME) 45-40N 009-42E 237M
Feb 24, 2021 - 09:20 PM EST / 2021.02.25 0220 UTC
Wind: from the N (350 degrees) at 5 MPH (4 KT):0
Visibility: greater than 7 mile(s):0
Temperature: 48 F (9 C)
Dew Point: 33 F (1 C)
Relative Humidity: 57%
Pressure (altimeter): 30.47 in. Hg (1032 hPa)
ob: LIME 250220Z 35004KT CAVOK 09/01 Q1032 NOSIG
cycle: 2

Station Type Date Time Source
LIME TAF 2021/02/24 18:21 UTC NOAA

TAF LIME 241700Z 2418/2518 VRB04KT CAVOK
BECMG 2420/2422 3000 BR PROB40
TEMPO 2502/2507 1200 BCFG BKN004
BECMG 2508/2510 8000

Example: see airport list